Time;durP1;ratioP1;P1;durP2;ratioP2;P2;SDS_P1;SDS_P2;PMS_P1;PMS_P2;Temp;Humidity;BMP_temperature;BMP_pressure;BME280_temperature;BME280_humidity;BME280_pressure;Samples;Min_cycle;Max_cycle;Signal;HPM_P1;HPM_P2
2021/11/17 02:53:43;;;;;;;61.15;19.85;;;5.90;99.90;;;;;;5018248;22;20473;-70
2021/11/17 02:56:29;;;;;;;57.92;20.30;;;5.90;99.90;;;;;;5010097;28;20498;-70
2021/11/17 02:59:12;;;;;;;54.15;19.10;;;5.90;99.90;;;;;;5010866;28;20111;-70
2021/11/17 03:02:03;;;;;;;61.22;20.00;;;5.90;99.90;;;;;;5010588;28;20054;-70
2021/11/17 03:04:54;;;;;;;59.33;20.88;;;5.90;99.90;;;;;;5010682;28;20141;-70
2021/11/17 03:07:41;;;;;;;51.00;18.77;;;5.80;99.90;;;;;;5010621;28;20058;-70
2021/11/17 03:10:27;;;;;;;52.67;18.50;;;5.80;99.90;;;;;;5011678;28;20058;-69
2021/11/17 03:13:11;;;;;;;51.22;20.27;;;5.80;99.90;;;;;;5011589;28;20063;-70
2021/11/17 03:15:57;;;;;;;56.95;18.52;;;5.80;99.90;;;;;;5010845;28;20100;-70
2021/11/17 03:18:42;;;;;;;57.10;19.83;;;5.80;99.90;;;;;;5011558;28;20046;-70
2021/11/17 03:21:33;;;;;;;57.28;19.98;;;5.80;99.90;;;;;;5010841;28;20096;-70
2021/11/17 03:24:16;;;;;;;57.92;20.60;;;5.80;99.90;;;;;;5010623;28;20540;-70
2021/11/17 03:26:57;;;;;;;52.35;19.90;;;5.80;99.90;;;;;;5009720;28;20061;-70
2021/11/17 03:29:48;;;;;;;54.22;19.55;;;5.80;99.90;;;;;;5010378;28;20054;-70
2021/11/17 03:32:34;;;;;;;53.58;19.13;;;5.80;99.90;;;;;;5010394;28;20120;-70
2021/11/17 03:35:35;;;;;;;61.13;21.15;;;5.80;99.90;;;;;;5009436;28;20054;-70
2021/11/17 03:38:35;;;;;;;57.22;20.92;;;5.80;99.90;;;;;;4926369;28;20114;-71
2021/11/17 03:41:20;;;;;;;57.22;19.52;;;5.80;99.90;;;;;;5001641;28;20128;-70
2021/11/17 03:44:22;;;;;;;54.50;19.42;;;5.80;99.90;;;;;;5010111;28;20498;-70
2021/11/17 03:47:19;;;;;;;62.25;19.60;;;5.80;99.90;;;;;;4957139;28;20533;-70
2021/11/17 03:50:02;;;;;;;58.22;19.23;;;5.80;99.90;;;;;;5010614;28;20057;-70
2021/11/17 03:52:43;;;;;;;54.85;18.52;;;5.80;99.90;;;;;;5010446;28;20520;-70
2021/11/17 03:55:39;;;;;;;51.88;17.33;;;5.80;99.90;;;;;;5012232;28;20468;-70
2021/11/17 03:58:18;;;;;;;54.55;18.80;;;5.80;99.90;;;;;;5013122;28;20468;-69
2021/11/17 04:01:14;;;;;;;49.30;18.13;;;5.80;99.90;;;;;;5010698;28;20473;-70
2021/11/17 04:04:05;;;;;;;50.30;18.88;;;5.80;99.90;;;;;;5024220;28;20056;-70
2021/11/17 04:06:45;;;;;;;48.35;17.30;;;5.80;99.90;;;;;;5029765;28;20076;-70
2021/11/17 04:09:26;;;;;;;48.40;18.05;;;5.80;99.90;;;;;;5030450;28;20053;-70
2021/11/17 04:12:12;;;;;;;50.40;18.30;;;5.80;99.90;;;;;;5029743;28;20077;-70
2021/11/17 04:14:51;;;;;;;49.67;17.45;;;5.80;99.90;;;;;;5029641;28;20056;-70
2021/11/17 04:17:31;;;;;;;50.00;17.58;;;5.80;99.90;;;;;;5029686;28;20052;-70
2021/11/17 04:20:11;;;;;;;46.42;16.05;;;5.80;99.90;;;;;;5030241;28;20053;-70
2021/11/17 04:23:02;;;;;;;47.10;17.00;;;5.80;99.90;;;;;;5029785;28;20053;-70
2021/11/17 04:25:51;;;;;;;51.97;16.73;;;5.80;99.90;;;;;;5029739;28;20120;-70
2021/11/17 04:28:32;;;;;;;42.53;15.82;;;5.80;99.90;;;;;;5029906;28;20057;-69
2021/11/17 04:31:21;;;;;;;49.03;16.48;;;5.80;99.90;;;;;;5030035;28;20061;-70
2021/11/17 04:34:21;;;;;;;45.30;16.23;;;5.80;99.90;;;;;;5030054;28;20049;-69
2021/11/17 04:37:22;;;;;;;43.90;16.73;;;5.80;99.90;;;;;;5029368;28;20103;-70
2021/11/17 04:40:13;;;;;;;46.17;15.80;;;5.80;99.90;;;;;;5013360;28;20054;-69
2021/11/17 04:43:05;;;;;;;41.20;14.60;;;5.80;99.90;;;;;;5029350;28;20477;-70
2021/11/17 04:45:47;;;;;;;45.65;16.17;;;5.90;99.90;;;;;;5028122;28;20120;-70
2021/11/17 04:48:30;;;;;;;40.33;15.20;;;5.90;99.90;;;;;;5028370;28;20054;-70
2021/11/17 04:51:17;;;;;;;40.28;14.77;;;5.80;99.90;;;;;;5029374;28;20501;-69
2021/11/17 04:54:11;;;;;;;40.20;15.15;;;5.80;99.90;;;;;;5029175;28;20050;-70
2021/11/17 04:56:57;;;;;;;40.72;13.77;;;5.80;99.90;;;;;;5010934;28;20053;-70
2021/11/17 04:59:41;;;;;;;40.58;14.95;;;5.80;99.90;;;;;;5029508;28;20116;-69
2021/11/17 05:02:32;;;;;;;41.72;14.88;;;5.80;99.90;;;;;;5028959;28;20447;-69
2021/11/17 05:05:13;;;;;;;41.22;14.85;;;5.80;99.90;;;;;;5019391;28;20349;-70
2021/11/17 05:07:49;;;;;;;44.25;16.42;;;5.80;99.90;;;;;;5029029;28;20053;-70
2021/11/17 05:10:37;;;;;;;45.20;17.35;;;5.70;99.90;;;;;;5029298;28;20299;-69
2021/11/17 05:13:14;;;;;;;39.92;16.05;;;5.80;99.90;;;;;;5028723;28;20045;-70
2021/11/17 05:15:52;;;;;;;40.63;14.82;;;5.70;99.90;;;;;;5028529;28;20049;-70
2021/11/17 05:18:26;;;;;;;39.47;14.55;;;5.70;99.90;;;;;;5029214;28;20049;-70
2021/11/17 05:21:06;;;;;;;44.38;16.13;;;5.70;99.90;;;;;;5029364;28;20128;-70
2021/11/17 05:23:57;;;;;;;31.55;13.32;;;5.70;99.90;;;;;;5028569;28;20478;-70
2021/11/17 05:26:37;;;;;;;35.13;13.07;;;5.70;99.90;;;;;;5028816;28;20041;-69
2021/11/17 05:29:26;;;;;;;29.98;12.07;;;5.60;99.90;;;;;;5028731;28;20061;-70
2021/11/17 05:32:06;;;;;;;29.90;13.00;;;5.60;99.90;;;;;;5029032;28;20053;-70
2021/11/17 05:34:51;;;;;;;31.85;12.77;;;5.60;99.90;;;;;;5029376;28;20049;-70
2021/11/17 05:37:28;;;;;;;32.80;12.35;;;5.60;99.90;;;;;;5028879;28;20346;-69
2021/11/17 05:40:11;;;;;;;32.30;11.77;;;5.60;99.90;;;;;;5028925;28;20050;-70
2021/11/17 05:42:51;;;;;;;32.53;13.10;;;5.60;99.90;;;;;;5029120;28;20054;-70
2021/11/17 05:45:35;;;;;;;28.60;12.23;;;5.60;99.90;;;;;;5028665;28;20049;-69
2021/11/17 05:48:12;;;;;;;31.80;12.38;;;5.70;99.90;;;;;;5028506;28;20107;-69
2021/11/17 05:51:01;;;;;;;30.92;11.55;;;5.60;99.90;;;;;;5029073;28;20498;-69
2021/11/17 05:53:45;;;;;;;29.00;11.88;;;5.60;99.90;;;;;;5028053;28;20464;-69
2021/11/17 05:56:31;;;;;;;30.92;12.40;;;5.70;99.90;;;;;;5028240;28;20049;-70
2021/11/17 05:59:13;;;;;;;27.88;10.93;;;5.60;99.90;;;;;;5032408;28;20054;-69
2021/11/17 06:01:52;;;;;;;26.05;10.38;;;5.60;99.90;;;;;;5032966;28;20049;-69
2021/11/17 06:04:18;;;;;;;25.73;10.88;;;5.60;99.90;;;;;;5032137;28;20049;-70
2021/11/17 06:06:45;;;;;;;28.55;10.95;;;5.60;99.90;;;;;;5032335;28;20575;-69
2021/11/17 06:09:12;;;;;;;27.33;11.60;;;5.60;99.90;;;;;;5032192;28;20045;-69
2021/11/17 06:11:44;;;;;;;30.95;12.20;;;5.60;99.90;;;;;;5032121;28;20049;-69
2021/11/17 06:14:14;;;;;;;29.05;11.77;;;5.60;99.90;;;;;;5031575;28;20103;-69
2021/11/17 06:16:44;;;;;;;29.02;11.85;;;5.60;99.90;;;;;;5030923;28;20166;-69
2021/11/17 06:19:13;;;;;;;25.23;10.27;;;5.50;99.90;;;;;;5032066;28;20049;-69
2021/11/17 06:21:42;;;;;;;27.55;10.88;;;5.60;99.90;;;;;;5032504;28;20057;-69
2021/11/17 06:24:12;;;;;;;24.08;9.85;;;5.50;99.90;;;;;;5032491;28;20057;-69
2021/11/17 06:26:43;;;;;;;22.10;9.98;;;5.50;99.90;;;;;;5031636;28;20103;-69
2021/11/17 06:29:14;;;;;;;24.15;10.88;;;5.50;99.90;;;;;;5031581;28;20103;-69
2021/11/17 06:31:42;;;;;;;25.88;10.85;;;5.50;99.90;;;;;;5032485;28;20049;-69
2021/11/17 06:34:34;;;;;;;25.42;11.60;;;5.50;99.90;;;;;;5032073;28;20112;-68
2021/11/17 06:37:03;;;;;;;23.13;9.82;;;5.50;99.90;;;;;;5031437;28;20528;-69
2021/11/17 06:39:31;;;;;;;26.85;9.50;;;5.50;99.90;;;;;;5031570;28;20100;-69
2021/11/17 06:42:01;;;;;;;26.42;9.73;;;5.50;99.90;;;;;;5031698;28;20053;-68
2021/11/17 06:44:28;;;;;;;21.45;8.95;;;5.40;99.90;;;;;;5031178;28;20045;-69
2021/11/17 06:46:55;;;;;;;21.50;8.60;;;5.40;99.90;;;;;;5031214;28;20084;-69
2021/11/17 06:49:22;;;;;;;22.27;9.18;;;5.40;99.90;;;;;;5031794;28;20095;-69
2021/11/17 06:51:50;;;;;;;20.10;8.68;;;5.40;99.90;;;;;;5031630;28;20140;-69
2021/11/17 06:54:17;;;;;;;21.88;9.05;;;5.40;99.90;;;;;;5031334;28;20111;-69
2021/11/17 06:56:44;;;;;;;18.23;8.30;;;5.40;99.90;;;;;;5030894;28;20460;-69
2021/11/17 06:59:13;;;;;;;19.95;9.10;;;5.40;99.90;;;;;;5031082;28;20103;-69
2021/11/17 07:01:40;;;;;;;17.92;7.70;;;5.50;99.90;;;;;;5031900;28;20054;-69
2021/11/17 07:04:08;;;;;;;20.95;9.23;;;5.50;99.90;;;;;;5031230;28;20053;-69
2021/11/17 07:06:35;;;;;;;17.60;7.60;;;5.50;99.90;;;;;;5030422;28;20053;-69
2021/11/17 07:09:03;;;;;;;16.08;7.45;;;5.40;99.90;;;;;;5030650;28;20053;-69
2021/11/17 07:11:36;;;;;;;18.73;7.65;;;5.50;99.90;;;;;;5031328;28;20060;-69
2021/11/17 07:14:04;;;;;;;18.13;7.88;;;5.40;99.90;;;;;;5030717;28;20072;-69
2021/11/17 07:16:34;;;;;;;16.90;7.25;;;5.40;99.90;;;;;;5030849;28;20506;-69
2021/11/17 07:19:01;;;;;;;18.33;8.35;;;5.50;99.90;;;;;;5031126;28;20103;-69
2021/11/17 07:21:29;;;;;;;18.13;7.70;;;5.50;99.90;;;;;;5031563;28;20057;-69
2021/11/17 07:23:56;;;;;;;21.15;8.13;;;5.60;99.90;;;;;;5030919;28;20049;-69
2021/11/17 07:26:23;;;;;;;20.25;8.05;;;5.60;99.90;;;;;;5030348;28;20084;-69
2021/11/17 07:28:50;;;;;;;16.75;7.15;;;5.60;99.90;;;;;;5030691;28;20100;-69
2021/11/17 07:31:18;;;;;;;19.38;8.90;;;5.60;99.90;;;;;;5030990;28;20099;-69
2021/11/17 07:33:47;;;;;;;26.13;9.85;;;5.60;99.90;;;;;;5030748;28;20107;-69
2021/11/17 07:36:16;;;;;;;19.58;7.90;;;5.60;99.90;;;;;;5030744;28;20056;-69
2021/11/17 07:38:44;;;;;;;23.50;8.55;;;5.60;99.90;;;;;;5030794;28;20049;-69
2021/11/17 07:41:11;;;;;;;21.27;7.90;;;5.60;99.90;;;;;;5030985;28;20088;-69
2021/11/17 07:43:38;;;;;;;16.95;6.88;;;5.60;99.90;;;;;;5030739;28;20512;-69
2021/11/17 07:46:06;;;;;;;19.58;8.43;;;5.60;99.90;;;;;;5030703;28;20127;-71
2021/11/17 07:48:33;;;;;;;16.40;7.00;;;5.60;99.90;;;;;;5030858;28;20099;-69
2021/11/17 07:51:02;;;;;;;17.58;7.65;;;5.60;99.90;;;;;;5030629;28;20084;-69
2021/11/17 07:53:30;;;;;;;18.23;6.90;;;5.60;99.90;;;;;;5030083;28;20050;-69
2021/11/17 07:55:59;;;;;;;18.25;7.28;;;5.60;99.90;;;;;;5030355;28;20560;-69
2021/11/17 07:58:28;;;;;;;16.48;7.32;;;5.60;99.90;;;;;;5030317;28;20045;-69
2021/11/17 08:00:57;;;;;;;16.70;7.15;;;5.60;99.90;;;;;;5030551;28;20049;-69
2021/11/17 08:03:27;;;;;;;15.77;6.85;;;5.60;99.90;;;;;;5030587;28;20053;-69
2021/11/17 08:05:57;;;;;;;21.42;8.75;;;5.60;99.90;;;;;;5030068;28;20053;-69
2021/11/17 08:08:28;;;;;;;17.70;7.55;;;5.70;99.90;;;;;;5030843;28;20053;-69
2021/11/17 08:10:56;;;;;;;17.83;7.53;;;5.50;99.90;;;;;;5030435;28;20080;-69
2021/11/17 08:13:23;;;;;;;14.45;6.07;;;5.50;99.90;;;;;;5030139;28;20076;-69
2021/11/17 08:15:49;;;;;;;16.92;8.15;;;5.50;99.90;;;;;;5029295;28;20080;-69
2021/11/17 08:18:17;;;;;;;19.80;8.00;;;5.40;99.90;;;;;;5030495;28;20092;-69
2021/11/17 08:20:44;;;;;;;15.88;6.72;;;5.40;99.90;;;;;;5029460;28;20664;-69
2021/11/17 08:23:11;;;;;;;14.55;6.65;;;5.40;99.90;;;;;;5029501;28;20053;-69
2021/11/17 08:25:41;;;;;;;13.85;5.90;;;5.50;99.90;;;;;;5029241;28;20046;-69
2021/11/17 08:28:11;;;;;;;13.00;5.50;;;5.60;99.90;;;;;;5030003;28;20584;-69
2021/11/17 08:30:39;;;;;;;13.77;5.70;;;5.60;99.90;;;;;;5030090;28;20505;-69
2021/11/17 08:33:07;;;;;;;16.85;6.03;;;5.60;99.90;;;;;;5029862;28;20088;-69
2021/11/17 08:35:35;;;;;;;12.85;5.65;;;5.60;99.90;;;;;;5029270;28;20053;-69
2021/11/17 08:38:05;;;;;;;11.93;4.57;;;5.70;99.90;;;;;;5030351;28;20085;-69
2021/11/17 08:40:33;;;;;;;13.30;4.68;;;5.60;99.90;;;;;;5029474;28;20045;-69
2021/11/17 08:43:02;;;;;;;11.75;5.35;;;5.50;99.90;;;;;;5029625;28;20054;-69
2021/11/17 08:45:30;;;;;;;14.98;5.07;;;5.50;99.90;;;;;;5029189;28;20060;-69
2021/11/17 08:47:57;;;;;;;9.60;4.23;;;5.60;99.90;;;;;;5029607;28;20049;-69
2021/11/17 08:50:27;;;;;;;11.23;4.40;;;5.50;99.90;;;;;;5036231;23;20053;-63
2021/11/17 08:52:55;;;;;;;12.07;4.88;;;5.60;99.90;;;;;;5011331;28;20073;-66
2021/11/17 08:55:24;;;;;;;12.57;4.88;;;5.60;99.90;;;;;;5010038;28;20070;-67
2021/11/17 08:57:51;;;;;;;11.07;4.88;;;5.60;99.90;;;;;;5010700;28;20042;-67
2021/11/17 09:00:22;;;;;;;10.80;4.57;;;5.70;99.90;;;;;;5010167;28;20080;-66
2021/11/17 09:02:50;;;;;;;11.55;4.70;;;5.80;99.90;;;;;;5010635;28;20049;-67
2021/11/17 09:05:19;;;;;;;11.35;4.80;;;5.70;99.90;;;;;;5010141;28;20046;-66
2021/11/17 09:07:48;;;;;;;12.45;4.45;;;5.60;99.90;;;;;;5010514;28;20049;-67
2021/11/17 09:10:19;;;;;;;10.27;4.63;;;5.60;99.90;;;;;;5010297;28;20506;-66
2021/11/17 09:12:46;;;;;;;10.82;4.97;;;5.50;99.90;;;;;;5009875;28;20061;-67
2021/11/17 09:15:14;;;;;;;9.63;4.38;;;5.40;99.90;;;;;;5001931;28;20053;-67
2021/11/17 09:17:43;;;;;;;14.32;5.32;;;5.50;99.90;;;;;;5012784;28;20514;-67
2021/11/17 09:20:13;;;;;;;11.00;5.13;;;5.60;99.90;;;;;;5011583;28;20057;-64
2021/11/17 09:22:41;;;;;;;12.60;5.15;;;5.60;99.90;;;;;;5010402;28;20046;-67
2021/11/17 09:25:10;;;;;;;9.82;4.38;;;5.60;99.90;;;;;;5009685;28;20544;-65
2021/11/17 09:27:40;;;;;;;11.20;4.47;;;5.60;99.90;;;;;;5010270;28;20058;-64
2021/11/17 09:30:09;;;;;;;12.00;5.53;;;5.70;99.90;;;;;;5010535;28;20438;-65
2021/11/17 09:32:36;;;;;;;12.52;5.43;;;5.70;99.90;;;;;;5014258;28;20084;-65
2021/11/17 09:35:10;;;;;;;14.00;5.60;;;5.70;99.90;;;;;;5013575;28;20112;-64
2021/11/17 09:37:39;;;;;;;11.40;5.43;;;5.70;99.90;;;;;;5014226;28;20438;-65
2021/11/17 09:40:10;;;;;;;12.95;4.95;;;5.70;99.90;;;;;;5013813;28;20046;-64
2021/11/17 09:42:38;;;;;;;10.85;5.28;;;5.70;99.90;;;;;;5013683;28;20053;-65
2021/11/17 09:45:07;;;;;;;11.90;5.53;;;5.80;99.90;;;;;;5013386;28;20101;-64
2021/11/17 09:47:35;;;;;;;11.68;4.65;;;5.70;99.90;;;;;;5013247;28;20054;-64
2021/11/17 09:50:09;;;;;;;10.57;4.97;;;5.70;99.90;;;;;;5012800;28;20050;-65
2021/11/17 09:52:45;;;;;;;11.50;5.53;;;5.70;99.90;;;;;;5013035;28;20108;-65
2021/11/17 09:55:17;;;;;;;13.80;5.60;;;5.90;99.90;;;;;;5012273;28;20054;-64
2021/11/17 09:57:47;;;;;;;12.60;4.70;;;5.90;99.90;;;;;;5013173;28;20520;-65
2021/11/17 10:00:18;;;;;;;13.98;6.25;;;5.90;99.90;;;;;;5012896;28;20557;-65
2021/11/17 10:02:50;;;;;;;9.25;4.57;;;5.80;99.90;;;;;;5012903;28;20046;-65
2021/11/17 10:05:22;;;;;;;10.55;5.10;;;5.70;99.90;;;;;;5012369;28;20050;-64
2021/11/17 10:13:47;;;;;;;12.98;5.75;;;5.80;99.90;;;;;;4952360;28;20091;-66
2021/11/17 10:16:14;;;;;;;12.18;5.88;;;5.90;99.90;;;;;;4951956;29;20565;-65
2021/11/17 10:18:44;;;;;;;14.10;6.47;;;5.90;99.90;;;;;;4981980;28;20089;-65
2021/11/17 10:21:16;;;;;;;14.02;6.45;;;5.90;99.90;;;;;;5013010;28;20065;-64
2021/11/17 10:24:03;;;;;;;16.88;6.85;;;6.00;99.90;;;;;;5012544;28;20049;-65
2021/11/17 10:26:30;;;;;;;11.57;5.65;;;5.90;99.90;;;;;;5009211;28;20050;-64
2021/11/17 10:29:01;;;;;;;12.57;5.43;;;5.90;99.90;;;;;;5009354;28;20053;-65
2021/11/17 10:31:32;;;;;;;9.10;4.60;;;5.90;99.90;;;;;;5009973;28;20057;-64
2021/11/17 10:34:07;;;;;;;12.52;5.75;;;6.10;99.90;;;;;;5009919;28;20450;-64
2021/11/17 10:36:49;;;;;;;11.68;5.47;;;6.00;99.90;;;;;;5008621;28;20045;-64
2021/11/17 10:39:20;;;;;;;11.77;5.75;;;5.90;99.90;;;;;;5009467;28;20137;-65
2021/11/17 10:41:55;;;;;;;13.10;6.00;;;6.00;99.90;;;;;;5011992;28;20108;-64
2021/11/17 10:44:38;;;;;;;15.20;6.53;;;6.00;99.90;;;;;;5014331;28;20516;-65
2021/11/17 10:47:15;;;;;;;12.07;5.80;;;6.00;99.90;;;;;;5013749;28;20501;-65
2021/11/17 10:49:44;;;;;;;11.05;5.35;;;6.10;99.90;;;;;;5013230;28;20083;-65
2021/11/17 10:52:29;;;;;;;12.45;5.45;;;6.10;99.90;;;;;;5012522;28;20077;-64
2021/11/17 10:54:58;;;;;;;12.43;5.35;;;6.10;99.90;;;;;;5012283;28;20072;-66
2021/11/17 10:57:29;;;;;;;11.85;5.50;;;6.20;99.90;;;;;;5012317;28;20046;-66
2021/11/17 10:59:58;;;;;;;12.57;5.93;;;6.20;99.90;;;;;;5012815;28;20054;-66
2021/11/17 11:02:28;;;;;;;11.77;5.43;;;6.30;99.90;;;;;;5013068;28;20356;-66
2021/11/17 11:04:58;;;;;;;11.70;5.65;;;6.20;99.90;;;;;;5012650;28;20054;-66
2021/11/17 11:07:31;;;;;;;11.15;5.80;;;6.30;99.90;;;;;;5014369;28;20053;-67
2021/11/17 11:10:02;;;;;;;12.15;5.78;;;6.30;99.90;;;;;;5015205;28;20104;-66
2021/11/17 11:12:31;;;;;;;12.18;5.28;;;6.30;99.90;;;;;;5014845;28;20058;-66
2021/11/17 11:15:02;;;;;;;10.63;5.68;;;6.30;99.90;;;;;;5013158;28;20045;-66
2021/11/17 11:17:33;;;;;;;9.77;5.05;;;6.30;99.90;;;;;;5012406;28;20053;-66
2021/11/17 11:20:36;;;;;;;11.25;5.13;;;6.40;99.90;;;;;;5013812;28;20124;-66
2021/11/17 11:23:21;;;;;;;13.48;5.20;;;6.30;99.90;;;;;;5013066;28;20396;-66
2021/11/17 11:26:09;;;;;;;10.80;5.50;;;6.20;99.90;;;;;;5011818;28;20046;-66
2021/11/17 11:28:39;;;;;;;11.50;5.65;;;6.20;99.90;;;;;;5011913;28;20116;-65
2021/11/17 11:31:27;;;;;;;11.20;5.32;;;6.30;99.90;;;;;;5012529;28;20113;-66
2021/11/17 11:34:27;;;;;;;10.90;5.22;;;6.30;99.90;;;;;;5012452;28;20109;-66
2021/11/17 11:36:54;;;;;;;11.10;5.40;;;6.30;99.90;;;;;;5011832;28;20100;-66
2021/11/17 11:39:44;;;;;;;10.25;5.05;;;6.30;99.90;;;;;;5011705;28;20046;-66
2021/11/17 11:42:33;;;;;;;7.50;3.83;;;6.30;99.90;;;;;;4996416;28;20054;-66
2021/11/17 11:45:22;;;;;;;8.30;3.63;;;6.20;99.90;;;;;;5003972;28;20053;-66
2021/11/17 11:47:56;;;;;;;7.93;3.15;;;6.10;99.90;;;;;;5011176;28;20305;-66
2021/11/17 11:51:03;;;;;;;8.38;3.97;;;5.90;99.90;;;;;;5003436;28;20101;-66
2021/11/17 11:54:14;;;;;;;8.20;3.75;;;6.00;99.90;;;;;;5029448;28;20425;-65
2021/11/17 11:56:48;;;;;;;8.05;3.20;;;6.10;99.90;;;;;;5030490;28;20105;-68
2021/11/17 11:59:18;;;;;;;9.18;3.92;;;6.10;99.90;;;;;;5030189;28;20494;-66
2021/11/17 12:01:46;;;;;;;7.15;3.25;;;6.00;99.90;;;;;;5012079;28;20050;-66
2021/11/17 12:04:20;;;;;;;7.63;3.42;;;6.10;99.90;;;;;;5010734;28;20088;-66
2021/11/17 12:06:53;;;;;;;8.52;3.55;;;6.20;99.90;;;;;;5011388;28;20053;-66
2021/11/17 12:09:28;;;;;;;7.72;3.55;;;6.20;99.90;;;;;;5011709;28;20502;-66
2021/11/17 12:11:59;;;;;;;8.18;3.53;;;6.20;99.90;;;;;;5010352;28;20530;-65
2021/11/17 12:14:37;;;;;;;6.78;3.35;;;6.20;99.90;;;;;;5010454;28;20045;-66
2021/11/17 12:17:06;;;;;;;9.35;3.85;;;6.10;99.90;;;;;;5010044;28;20054;-66
2021/11/17 12:19:41;;;;;;;9.48;3.80;;;6.10;99.90;;;;;;5010552;28;20581;-66
2021/11/17 12:22:17;;;;;;;9.77;3.95;;;6.00;99.90;;;;;;5010177;28;20559;-68
2021/11/17 12:24:46;;;;;;;8.30;3.67;;;6.00;99.90;;;;;;5010170;28;20065;-65
2021/11/17 12:27:18;;;;;;;9.27;3.90;;;6.00;99.90;;;;;;5009810;28;20524;-66
2021/11/17 12:29:51;;;;;;;9.15;3.75;;;6.10;99.90;;;;;;5010482;28;20050;-66
2021/11/17 12:32:28;;;;;;;9.20;4.25;;;6.10;99.90;;;;;;5009949;28;20050;-65
2021/11/17 12:35:01;;;;;;;10.07;4.60;;;6.20;99.90;;;;;;5009906;28;20552;-65
2021/11/17 12:37:34;;;;;;;9.85;4.60;;;6.10;99.90;;;;;;5009677;28;20121;-66
2021/11/17 12:40:06;;;;;;;8.48;3.80;;;6.10;99.90;;;;;;5010165;28;20045;-66
2021/11/17 12:42:37;;;;;;;9.02;3.80;;;6.10;99.90;;;;;;5010577;28;20374;-66
2021/11/17 12:45:17;;;;;;;7.40;3.72;;;6.10;99.90;;;;;;5009939;28;20461;-66
2021/11/17 12:47:48;;;;;;;10.38;4.30;;;6.00;99.90;;;;;;5009793;28;20053;-68
2021/11/17 12:50:18;;;;;;;12.00;4.88;;;6.00;99.90;;;;;;5010598;28;20053;-66
2021/11/17 12:52:49;;;;;;;17.02;4.78;;;6.00;99.90;;;;;;5009825;28;20096;-68
2021/11/17 12:55:21;;;;;;;10.82;4.88;;;6.00;99.90;;;;;;5009792;28;20113;-66
2021/11/17 12:57:53;;;;;;;10.63;4.70;;;5.90;99.90;;;;;;5009775;28;20514;-65
2021/11/17 13:00:41;;;;;;;13.60;4.95;;;6.00;99.90;;;;;;5009979;28;20062;-65
2021/11/17 13:03:22;;;;;;;12.23;4.97;;;5.90;99.90;;;;;;5009986;28;20113;-66
2021/11/17 13:06:02;;;;;;;10.80;5.00;;;5.80;99.90;;;;;;5009512;28;20525;-66
2021/11/17 13:08:34;;;;;;;10.90;5.65;;;5.90;99.90;;;;;;5009987;28;20077;-66
2021/11/17 13:11:14;;;;;;;9.70;4.68;;;5.90;99.90;;;;;;5010365;28;20053;-67
2021/11/17 13:13:46;;;;;;;15.07;6.18;;;5.80;99.90;;;;;;5009427;28;20531;-65
2021/11/17 13:16:18;;;;;;;12.20;4.90;;;5.80;99.90;;;;;;5009632;28;20054;-66
2021/11/17 13:18:55;;;;;;;14.45;5.22;;;5.70;99.90;;;;;;5009670;28;20461;-65
2021/11/17 13:21:32;;;;;;;11.50;5.57;;;5.70;99.90;;;;;;5009113;28;20096;-66
2021/11/17 13:24:40;;;;;;;9.27;4.75;;;5.70;99.90;;;;;;5009477;28;20061;-65
2021/11/17 13:27:39;;;;;;;11.35;5.40;;;5.70;99.90;;;;;;5009706;28;20108;-65
2021/11/17 13:30:27;;;;;;;11.63;5.22;;;5.60;99.90;;;;;;5009875;28;20053;-65
2021/11/17 13:32:55;;;;;;;12.35;5.80;;;5.70;99.90;;;;;;5010130;28;20050;-66
2021/11/17 13:35:33;;;;;;;13.25;6.07;;;5.80;99.90;;;;;;5008942;28;20050;-66
2021/11/17 13:38:16;;;;;;;13.18;6.13;;;5.90;99.90;;;;;;5009102;28;20112;-66
2021/11/17 13:40:45;;;;;;;12.43;5.65;;;5.80;99.90;;;;;;5009841;28;20564;-66
2021/11/17 13:43:13;;;;;;;9.82;4.20;;;5.80;99.90;;;;;;5009135;28;20477;-66
2021/11/17 13:45:44;;;;;;;7.93;3.72;;;5.80;99.90;;;;;;5009122;28;20050;-65
2021/11/17 13:48:11;;;;;;;6.45;2.92;;;5.70;99.90;;;;;;5009327;28;20054;-65
2021/11/17 13:50:39;;;;;;;7.32;3.42;;;5.60;99.90;;;;;;5009337;28;20053;-66
2021/11/17 13:53:10;;;;;;;8.88;3.28;;;5.60;99.90;;;;;;5009304;28;20054;-65
2021/11/17 13:55:39;;;;;;;7.10;2.97;;;5.60;99.90;;;;;;5009965;28;20395;-66
2021/11/17 13:58:07;;;;;;;7.70;3.17;;;5.60;99.90;;;;;;5010037;28;20050;-66
2021/11/17 14:00:35;;;;;;;7.30;3.53;;;5.60;99.90;;;;;;5010305;28;20050;-66
2021/11/17 14:03:04;;;;;;;7.47;3.50;;;5.70;99.90;;;;;;5009359;28;20124;-65
2021/11/17 14:05:30;;;;;;;11.55;3.97;;;5.70;99.90;;;;;;5009128;28;20077;-65
2021/11/17 14:07:58;;;;;;;6.97;3.45;;;5.80;99.90;;;;;;5009464;28;20077;-65
2021/11/17 14:10:27;;;;;;;7.28;3.75;;;5.70;99.90;;;;;;5009595;28;20050;-66
2021/11/17 14:12:54;;;;;;;7.88;3.67;;;5.70;99.90;;;;;;5009249;28;20509;-66
2021/11/17 14:15:21;;;;;;;8.13;3.28;;;5.70;99.90;;;;;;5009458;28;20555;-66
2021/11/17 14:17:50;;;;;;;6.68;3.13;;;5.70;99.90;;;;;;5010685;28;20084;-65
2021/11/17 14:20:19;;;;;;;5.97;2.75;;;5.70;99.90;;;;;;5012619;28;20085;-66
2021/11/17 14:22:47;;;;;;;7.15;2.88;;;5.70;99.90;;;;;;5013139;28;20045;-64
2021/11/17 14:25:17;;;;;;;8.10;3.40;;;5.70;99.90;;;;;;5012561;28;20112;-66
2021/11/17 14:27:47;;;;;;;7.50;3.55;;;5.70;99.90;;;;;;5013377;28;20062;-66
2021/11/17 14:30:25;;;;;;;6.78;3.15;;;5.70;99.90;;;;;;5014895;28;20132;-66
2021/11/17 14:32:54;;;;;;;9.10;3.67;;;5.70;99.90;;;;;;5012703;28;20050;-66
2021/11/17 14:35:25;;;;;;;7.97;3.88;;;5.70;99.90;;;;;;5012243;28;20399;-66
2021/11/17 14:37:54;;;;;;;11.48;4.78;;;5.70;99.90;;;;;;5012696;28;20536;-65
2021/11/17 14:40:21;;;;;;;10.50;4.22;;;5.50;99.90;;;;;;5012930;28;20056;-65
2021/11/17 14:42:49;;;;;;;10.77;4.78;;;5.60;99.90;;;;;;5012763;28;20390;-65
2021/11/17 14:45:20;;;;;;;9.90;4.55;;;5.50;99.90;;;;;;5011660;28;20049;-65
2021/11/17 14:47:47;;;;;;;16.00;5.47;;;5.60;99.90;;;;;;5012645;28;20496;-66
